Elkins, West Virginia
Current Conditions -  °F | °C
As of 9:51 AM on Thursday 23 Oct 2014 (Local Time) from KEKN Reporting Station
Overcast Overcast  
Wind Chill: 40°   Ceiling: 800
Heat Index: 44°   Visibility: 10mi
Dew Point: 42°   Wind: 7mph
Humidity: 93%   Direction: 330°NNW
Pressure: 30.16"   Gusts: 16mph
Location:  38.92°N, 79.84°W
Report Text: KEKN 231351Z AUTO 33006G14KT 10SM OVC008 07/06 A3016 RMK AO2 SLP225 T00670056 TSNO
Loading
Personal Weather Stations






























Interactive Weather Map New forecast layout! Learn more

10-Day Weather Forecast

Advertisements
Track Severe Weather on mobile